Paradox, New York
Current Conditions -  °F | °C
As of 3:35 PM on Saturday 25 Oct 2014 (Local Time) from K6B0 Reporting Station
Overcast Overcast  
Wind Chill: 57°   Ceiling: 5000
Heat Index: 57°   Visibility: 10mi
Dew Point: 42°   Wind: 6mph
Humidity: 57%   Direction: 160°SSE
Pressure: 29.61"   Gusts: NA
Location:  43.89°N, 73.65°W
Report Text: K6B0 251935Z AUTO 16005KT 10SM OVC050 14/06 A2961 RMK AO2 T01400056
Loading
Personal Weather Stations






























Interactive Weather Map
Tropical Storm Tracking
New forecast layout! Learn more

10-Day Weather Forecast

Advertisements
Track Severe Weather on mobile